Terminal Aerodrome Forecast
Issued by NWS

Home | Current Version | Previous Version | Text Only | Print | Product List | Glossary On
Versions: 1 2 3 4 5 6 7 8 9 10 11 12 13 14 15 16 17 18 19 20 21 22
000
FTUS41 KPBZ 202300
TAFLBE
TAF
KLBE 202320Z 2100/2124 19004KT P6SM -SHRA OVC060
     FM210300 21005KT 6SM -SHRA OVC030
     FM210600 22004KT 5SM -SHRA BR OVC015
     FM211500 26007KT P6SM -SHRA OVC025
     FM212100 28007KT P6SM -SHRA BKN035=

USA.gov is the U.S. government's official web portal to all federal, state and local government web resources and services.